Ventura — ZCDT2 — position and weather

sailwx.info

Track history (hours):
 
Tides and Currents Weather Stations Pressure Air Temp Water Temp Dewpoint Dewpoint Depression Visibility Wind Speed Wind Dir Waves Ship Positions

Ventura

Last reported at 2016-Jun-26 05:33 UTC. Time now 2016-Jun-26 06:36 UTC.
Position N 50°54' W 001°26'.

Length 288 m.

Type: Passenger vessel. MMSI: 310562000.

Date/timePositionNaut miles runAvg speedWind from/ knotsBaromVisibWave heightAir tempDewpointWater temp
2016-Jun-26 05:33N 50°54' W 001°26'4 3.9
2016-Jun-26 04:33N 50°52' W 001°21'9 9.4
2016-Jun-26 03:34N 50°46' W 001°10'1010.5
2016-Jun-26 02:33N 50°38' W 000°59'1010.0
2016-Jun-26 01:34N 50°30' W 001°10'1211.5
2016-Jun-26 00:33N 50°24' W 001°25'1210.7
2016-Jun-25 23:25N 50°23' W 001°44'22 1.1
2016-Jun-25 04:19N 50°04' W 002°02'1922.7
2016-Jun-25 03:29N 50°11' W 001°34'2121.7
2016-Jun-25 02:32N 50°17' W 001°03'1919.8
2016-Jun-25 01:33N 50°21' W 000°34'1918.7
2016-Jun-25 00:33N 50°27' W 000°06'5 8.6
2016-Jun-25 00:00N 50°24' E 000°00'1635.9 220 / 201017.210.8 2.014.012.714.0
2016-Jun-24 23:33N 50°32' E 000°21'3718.7
2016-Jun-24 21:33N 50°54' E 001°09'2020.0
2016-Jun-24 20:34N 51°07' E 001°32'1919.2
2016-Jun-24 19:34N 51°22' E 001°52'1716.5
2016-Jun-24 18:34N 51°20' E 002°18'1817.5
2016-Jun-24 17:33N 51°22' E 002°46'1313.4
2016-Jun-24 16:33N 51°24' E 003°07'5 4.3
2016-Jun-24 15:28N 51°20' E 003°12'0 0.0
2016-Jun-24 14:28N 51°20' E 003°12'0 0.0
2016-Jun-24 13:28N 51°20' E 003°12'0 0.0
2016-Jun-24 12:16N 51°20' E 003°12'0 0.0
2016-Jun-24 11:28N 51°20' E 003°12'0 0.0
2016-Jun-24 10:16N 51°20' E 003°12'0 0.0
2016-Jun-24 09:28N 51°20' E 003°12'0 0.0
2016-Jun-24 08:16N 51°20' E 003°12'0 0.0
2016-Jun-24 07:28N 51°20' E 003°12'0 0.0
2016-Jun-24 04:34N 51°21' E 003°12'9 9.3
2016-Jun-24 03:34N 51°23' E 002°58'1514.5
2016-Jun-24 02:31N 51°22' E 002°34'1111.3
2016-Jun-24 01:34N 51°18' E 002°18'1211.8
2016-Jun-24 00:34N 51°13' E 002°01'1111.4
2016-Jun-23 23:33N 51°08' E 001°45'10 9.6
2016-Jun-23 22:33N 51°00' E 001°35'9 9.2
2016-Jun-23 21:33N 50°53' E 001°27'10 9.3
2016-Jun-23 20:31N 50°43' E 001°22'9 9.4
2016-Jun-23 19:33N 50°37' E 001°12'40 9.7
2016-Jun-23 15:28N 50°17' E 000°18'7 7.9
2016-Jun-23 14:33N 50°11' E 000°12'9 9.1
2016-Jun-23 13:34N 50°03' E 000°07'4 4.1
2016-Jun-23 12:34N 50°01' E 000°01'1 0.8
2016-Jun-23 11:34N 50°02' E 000°00'5 4.6
2016-Jun-23 10:34N 50°02' E 000°07'2 1.6
2016-Jun-23 09:34N 50°02' E 000°05'3 3.1
2016-Jun-23 08:34N 50°03' W 000°00'2 2.0
2016-Jun-23 07:34N 50°03' W 000°03'3 1.4
2016-Jun-23 05:34N 50°02' E 000°00'3 2.5
2016-Jun-23 04:34N 50°02' W 000°04'1 1.0
2016-Jun-23 03:33N 50°03' W 000°04'2 1.8
2016-Jun-23 02:33N 50°03' W 000°02'3 2.9
2016-Jun-23 01:32N 50°03' E 000°03'1 1.4
2016-Jun-23 00:33N 50°02' E 000°02'8 7.8
2016-Jun-22 23:33N 50°01' W 000°10'10 9.6
2016-Jun-22 22:33N 50°05' W 000°24'9 8.9
2016-Jun-22 21:33N 50°12' W 000°33'9 8.5
2016-Jun-22 20:31N 50°21' W 000°36'8 8.7
2016-Jun-22 19:33N 50°28' W 000°43'9 9.0
2016-Jun-22 18:33N 50°35' W 000°50'1010.1
2016-Jun-22 17:33N 50°43' W 001°00'1312.5
2016-Jun-22 16:33N 50°49' W 001°18'6 5.6
2016-Jun-22 15:29N 50°54' W 001°24'0 0.0
2016-Jun-22 14:32N 50°54' W 001°24'0 0.0
2016-Jun-22 13:32N 50°54' W 001°24'0 0.0
2016-Jun-22 12:32N 50°54' W 001°24'0 0.0
2016-Jun-22 11:32N 50°54' W 001°24'0 0.0
2016-Jun-22 10:20N 50°54' W 001°24'0 0.0
2016-Jun-22 09:32N 50°54' W 001°24'0 0.0
2016-Jun-22 08:32N 50°54' W 001°24'0 0.0
2016-Jun-22 07:32N 50°54' W 001°24'0 0.0
2016-Jun-22 06:32N 50°54' W 001°24'0 0.1
2016-Jun-22 05:33N 50°54' W 001°24'7 6.6
2016-Jun-22 04:33N 50°48' W 001°18'1312.9
2016-Jun-22 03:33N 50°43' W 000°59'1111.3
2016-Jun-22 02:33N 50°32' W 001°05'1413.8
2016-Jun-22 01:33N 50°27' W 001°25'3316.3
2016-Jun-21 23:33N 50°11' W 002°10'1915.8
2016-Jun-21 22:19N 49°56' W 002°29'1519.2
2016-Jun-21 21:33N 49°51' W 002°50'1919.1
2016-Jun-21 20:33N 49°42' W 003°16'2018.7
2016-Jun-21 19:30N 49°29' W 003°39'2219.0
2016-Jun-21 18:21N 49°16' W 004°05'1619.3
2016-Jun-21 17:32N 49°06' W 004°25'1919.0
2016-Jun-21 16:33N 48°55' W 004°47'1918.7
2016-Jun-21 15:33N 48°42' W 005°08'2120.5
2016-Jun-21 14:33N 48°27' W 005°29'2340.4
2016-Jun-21 14:00N 48°06' W 005°42'4 5.3 150 / 101019.210.8 17.514.015.5
2016-Jun-21 13:19N 48°05' W 005°47'21220.6
2016-Jun-21 03:00N 45°00' W 008°18'26619.0 220 / 111019.7 0.1 16.816.316.8
2016-Jun-20 13:00N 40°42' W 009°48'9019.1 350 / 231023.010.8 2.017.815.118.7
2016-Jun-20 08:16N 39°12' W 009°50'1419.6
2016-Jun-20 07:33N 38°58' W 009°49'1919.4
2016-Jun-20 06:34N 38°38' W 009°50'2019.8
2016-Jun-20 05:33N 38°19' W 009°44'2019.7
2016-Jun-20 04:33N 38°00' W 009°37'2020.0
2016-Jun-20 03:34N 37°41' W 009°30'2020.3
2016-Jun-20 02:34N 37°21' W 009°25'1919.2
2016-Jun-20 01:34N 37°02' W 009°23'1918.3
2016-Jun-20 00:30N 36°46' W 009°09'1818.9
2016-Jun-19 23:33N 36°42' W 008°47'2019.8
2016-Jun-19 22:34N 36°41' W 008°23'1919.3
2016-Jun-19 21:33N 36°39' W 007°59'1919.3
2016-Jun-19 20:34N 36°38' W 007°35'1919.1
2016-Jun-19 19:34N 36°37' W 007°11'1918.7
2016-Jun-19 18:34N 36°35' W 006°48'2119.1
2016-Jun-19 17:28N 36°34' W 006°22'50 3.6
2016-Jun-19 03:24N 35°58' W 005°38'1213.7
2016-Jun-19 02:33N 36°00' W 005°24'1912.4
2016-Jun-19 01:00N 36°00' W 005°00'10422.2 080 / 151022.010.8 0.520.515.716.5
2016-Jun-18 20:17N 36°22' W 002°54'1520.6
2016-Jun-18 19:33N 36°24' W 002°35'2120.8
2016-Jun-18 18:34N 36°26' W 002°09'7221.0
2016-Jun-18 15:08N 37°15' W 001°03'1321.0
2016-Jun-18 14:30N 37°24' W 000°51'1919.9
2016-Jun-18 13:34N 37°35' W 000°32'2020.2
2016-Jun-18 12:34N 37°50' W 000°16'10621.2
2016-Jun-18 07:32N 39°11' E 001°13'2121.2
2016-Jun-18 06:33N 39°26' E 001°32'2121.3
2016-Jun-18 05:33N 39°39' E 001°53'2120.8
2016-Jun-18 04:33N 39°52' E 002°14'2120.7
2016-Jun-18 03:33N 40°04' E 002°36'2120.9
2016-Jun-18 02:33N 40°14' E 003°01'2220.9
2016-Jun-18 01:30N 40°25' E 003°26'2121.7
2016-Jun-18 00:33N 40°34' E 003°50'  
Track history (hours):
 
Tides and Currents Weather Stations Pressure Air Temp Water Temp Dewpoint Dewpoint Depression Visibility Wind Speed Wind Dir Waves Ship Positions

Ventura

Last reported at 2016-Jun-26 05:33 UTC. Time now 2016-Jun-26 06:36 UTC.
Position N 50°54' W 001°26'.

Length 288 m.

Type: Passenger vessel. MMSI: 310562000.

Date/timePositionNaut miles runAvg speedWind from/ knotsBaromVisibWave heightAir tempDewpointWater temp
2016-Jun-26 05:33N 50°54' W 001°26'4 3.9
2016-Jun-26 04:33N 50°52' W 001°21'9 9.4
2016-Jun-26 03:34N 50°46' W 001°10'1010.5
2016-Jun-26 02:33N 50°38' W 000°59'1010.0
2016-Jun-26 01:34N 50°30' W 001°10'1211.5
2016-Jun-26 00:33N 50°24' W 001°25'1210.7
2016-Jun-25 23:25N 50°23' W 001°44'22 1.1
2016-Jun-25 04:19N 50°04' W 002°02'1922.7
2016-Jun-25 03:29N 50°11' W 001°34'2121.7
2016-Jun-25 02:32N 50°17' W 001°03'1919.8
2016-Jun-25 01:33N 50°21' W 000°34'1918.7
2016-Jun-25 00:33N 50°27' W 000°06'5 8.6
2016-Jun-25 00:00N 50°24' E 000°00'1635.9 220 / 201017.210.8 2.014.012.714.0
2016-Jun-24 23:33N 50°32' E 000°21'3718.7
2016-Jun-24 21:33N 50°54' E 001°09'2020.0
2016-Jun-24 20:34N 51°07' E 001°32'1919.2
2016-Jun-24 19:34N 51°22' E 001°52'1716.5
2016-Jun-24 18:34N 51°20' E 002°18'1817.5
2016-Jun-24 17:33N 51°22' E 002°46'1313.4
2016-Jun-24 16:33N 51°24' E 003°07'5 4.3
2016-Jun-24 15:28N 51°20' E 003°12'0 0.0
2016-Jun-24 14:28N 51°20' E 003°12'0 0.0
2016-Jun-24 13:28N 51°20' E 003°12'0 0.0
2016-Jun-24 12:16N 51°20' E 003°12'0 0.0
2016-Jun-24 11:28N 51°20' E 003°12'0 0.0
2016-Jun-24 10:16N 51°20' E 003°12'0 0.0
2016-Jun-24 09:28N 51°20' E 003°12'0 0.0
2016-Jun-24 08:16N 51°20' E 003°12'0 0.0
2016-Jun-24 07:28N 51°20' E 003°12'0 0.0
2016-Jun-24 04:34N 51°21' E 003°12'9 9.3
2016-Jun-24 03:34N 51°23' E 002°58'1514.5
2016-Jun-24 02:31N 51°22' E 002°34'1111.3
2016-Jun-24 01:34N 51°18' E 002°18'1211.8
2016-Jun-24 00:34N 51°13' E 002°01'1111.4
2016-Jun-23 23:33N 51°08' E 001°45'10 9.6
2016-Jun-23 22:33N 51°00' E 001°35'9 9.2
2016-Jun-23 21:33N 50°53' E 001°27'10 9.3
2016-Jun-23 20:31N 50°43' E 001°22'9 9.4
2016-Jun-23 19:33N 50°37' E 001°12'40 9.7
2016-Jun-23 15:28N 50°17' E 000°18'7 7.9
2016-Jun-23 14:33N 50°11' E 000°12'9 9.1
2016-Jun-23 13:34N 50°03' E 000°07'4 4.1
2016-Jun-23 12:34N 50°01' E 000°01'1 0.8
2016-Jun-23 11:34N 50°02' E 000°00'5 4.6
2016-Jun-23 10:34N 50°02' E 000°07'2 1.6
2016-Jun-23 09:34N 50°02' E 000°05'3 3.1
2016-Jun-23 08:34N 50°03' W 000°00'2 2.0
2016-Jun-23 07:34N 50°03' W 000°03'3 1.4
2016-Jun-23 05:34N 50°02' E 000°00'3 2.5
2016-Jun-23 04:34N 50°02' W 000°04'1 1.0
2016-Jun-23 03:33N 50°03' W 000°04'2 1.8
2016-Jun-23 02:33N 50°03' W 000°02'3 2.9
2016-Jun-23 01:32N 50°03' E 000°03'1 1.4
2016-Jun-23 00:33N 50°02' E 000°02'8 7.8
2016-Jun-22 23:33N 50°01' W 000°10'10 9.6
2016-Jun-22 22:33N 50°05' W 000°24'9 8.9
2016-Jun-22 21:33N 50°12' W 000°33'9 8.5
2016-Jun-22 20:31N 50°21' W 000°36'8 8.7
2016-Jun-22 19:33N 50°28' W 000°43'9 9.0
2016-Jun-22 18:33N 50°35' W 000°50'1010.1
2016-Jun-22 17:33N 50°43' W 001°00'1312.5
2016-Jun-22 16:33N 50°49' W 001°18'6 5.6
2016-Jun-22 15:29N 50°54' W 001°24'0 0.0
2016-Jun-22 14:32N 50°54' W 001°24'0 0.0
2016-Jun-22 13:32N 50°54' W 001°24'0 0.0
2016-Jun-22 12:32N 50°54' W 001°24'0 0.0
2016-Jun-22 11:32N 50°54' W 001°24'0 0.0
2016-Jun-22 10:20N 50°54' W 001°24'0 0.0
2016-Jun-22 09:32N 50°54' W 001°24'0 0.0
2016-Jun-22 08:32N 50°54' W 001°24'0 0.0
2016-Jun-22 07:32N 50°54' W 001°24'0 0.0
2016-Jun-22 06:32N 50°54' W 001°24'0 0.1
2016-Jun-22 05:33N 50°54' W 001°24'7 6.6
2016-Jun-22 04:33N 50°48' W 001°18'1312.9
2016-Jun-22 03:33N 50°43' W 000°59'1111.3
2016-Jun-22 02:33N 50°32' W 001°05'1413.8
2016-Jun-22 01:33N 50°27' W 001°25'3316.3
2016-Jun-21 23:33N 50°11' W 002°10'1915.8
2016-Jun-21 22:19N 49°56' W 002°29'1519.2
2016-Jun-21 21:33N 49°51' W 002°50'1919.1
2016-Jun-21 20:33N 49°42' W 003°16'2018.7
2016-Jun-21 19:30N 49°29' W 003°39'2219.0
2016-Jun-21 18:21N 49°16' W 004°05'1619.3
2016-Jun-21 17:32N 49°06' W 004°25'1919.0
2016-Jun-21 16:33N 48°55' W 004°47'1918.7
2016-Jun-21 15:33N 48°42' W 005°08'2120.5
2016-Jun-21 14:33N 48°27' W 005°29'2340.4
2016-Jun-21 14:00N 48°06' W 005°42'4 5.3 150 / 101019.210.8 17.514.015.5
2016-Jun-21 13:19N 48°05' W 005°47'21220.6
2016-Jun-21 03:00N 45°00' W 008°18'26619.0 220 / 111019.7 0.1 16.816.316.8
2016-Jun-20 13:00N 40°42' W 009°48'9019.1 350 / 231023.010.8 2.017.815.118.7
2016-Jun-20 08:16N 39°12' W 009°50'1419.6
2016-Jun-20 07:33N 38°58' W 009°49'1919.4
2016-Jun-20 06:34N 38°38' W 009°50'2019.8
2016-Jun-20 05:33N 38°19' W 009°44'2019.7
2016-Jun-20 04:33N 38°00' W 009°37'2020.0
2016-Jun-20 03:34N 37°41' W 009°30'2020.3
2016-Jun-20 02:34N 37°21' W 009°25'1919.2
2016-Jun-20 01:34N 37°02' W 009°23'1918.3
2016-Jun-20 00:30N 36°46' W 009°09'1818.9
2016-Jun-19 23:33N 36°42' W 008°47'2019.8
2016-Jun-19 22:34N 36°41' W 008°23'1919.3
2016-Jun-19 21:33N 36°39' W 007°59'1919.3
2016-Jun-19 20:34N 36°38' W 007°35'1919.1
2016-Jun-19 19:34N 36°37' W 007°11'1918.7
2016-Jun-19 18:34N 36°35' W 006°48'2119.1
2016-Jun-19 17:28N 36°34' W 006°22'50 3.6
2016-Jun-19 03:24N 35°58' W 005°38'1213.7
2016-Jun-19 02:33N 36°00' W 005°24'1912.4
2016-Jun-19 01:00N 36°00' W 005°00'10422.2 080 / 151022.010.8 0.520.515.716.5
2016-Jun-18 20:17N 36°22' W 002°54'1520.6
2016-Jun-18 19:33N 36°24' W 002°35'2120.8
2016-Jun-18 18:34N 36°26' W 002°09'7221.0
2016-Jun-18 15:08N 37°15' W 001°03'1321.0
2016-Jun-18 14:30N 37°24' W 000°51'1919.9
2016-Jun-18 13:34N 37°35' W 000°32'2020.2
2016-Jun-18 12:34N 37°50' W 000°16'10621.2
2016-Jun-18 07:32N 39°11' E 001°13'2121.2
2016-Jun-18 06:33N 39°26' E 001°32'2121.3
2016-Jun-18 05:33N 39°39' E 001°53'2120.8
2016-Jun-18 04:33N 39°52' E 002°14'2120.7
2016-Jun-18 03:33N 40°04' E 002°36'2120.9
2016-Jun-18 02:33N 40°14' E 003°01'2220.9
2016-Jun-18 01:30N 40°25' E 003°26'2121.7
2016-Jun-18 00:33N 40°34' E 003°50'  

Dump ship's entire track history